首页
METAR-TAF:

METAR-TAF

机场 :

英迪拉·甘地国际机场

新德里, 印度

纬度: 28-34N, 经度: 077-07E, 海拔: 220米

当前天气观测

该预报发布于12分钟前的22:00 UTC
风速5节,风向东转东南
温度 30°C
湿度 66%
气压 1002 hPa
能見度: 3200
少量云层高于3500英尺
散云层高于10000英尺
霾,

METAR: VIDP 222200Z 11005KT 3200 HZ FEW035 SCT100 30/23 Q1002 NOSIG

时间: 03:42 (22:12 UTC)

预报

该预报发布于2小时和12分钟前的20:00 UTC
预报有效从22日的 21点(UTC)到 23日的 06点(UTC)
风速4节,风向东转东南
能見度: 3000
少量云层高于10000英尺
成为
从 23日的 00点(UTC)到 23日的 02点(UTC)
风速2节,风向多变
能見度: 1800
少量云层高于3500英尺
散云层高于10000英尺
霾, 轻雾
成为
从 23日的 04点(UTC)到 23日的 06点(UTC)
风速6节,风向北转东北
能見度: 3000
霾,

TAF: VIDP 222000Z 2221/2306 11004KT 3000 HZ FEW100 BECMG 2300/2302 VRB02KT 1800 HZ BR FEW035 SCT100 BECMG 2304/2306 03006KT 3000 HZ

超过4000个机场的气象观测和天气预报(METAR&TAF报告)。

可查询的气象台以黄色和红色小点在地图上表示。

将鼠标移到小点上方,可查看气象台名称。

然后点击查看天气观测和预报。

如需切换地图:点击带黑十字的绿色按钮放大地图;点击带横线的绿色按钮缩小地图;或者点击绿色箭头查看邻近地区的地图。


METAR-TAF: